Dunoon, United Kingdom
Current Conditions -  °F | °C
As of 6:20 PM on Monday 26 Jan 2015 (Local Time) from EGPF Reporting Station
Scattered Clouds Scattered Clouds  
Wind Chill: 35°   Ceiling: Unl
Heat Index: 41°   Visibility: 6mi
Dew Point: 36°   Wind: 9mph
Humidity: 81%   Direction: 260°W
Pressure: 30.21"   Gusts: NA
Location:  55.95°N, 4.92°W
Report Text: EGPF 261820Z AUTO 26008KT 9999 SCT032 05/02 Q1023
Loading
Personal Weather Stations






























Interactive Weather Map New forecast layout! Learn more

10-Day Weather Forecast

Advertisements
Track Severe Weather on mobile